createdAt,value
2019-05-05T00:02:14.510Z,12.35
2019-05-05T00:04:59.785Z,12.53
2019-05-05T00:07:30.130Z,11.68
2019-05-05T00:09:58.957Z,9.98
2019-05-05T00:12:29.062Z,9.88
2019-05-05T00:14:59.196Z,9.68
2019-05-05T00:17:29.272Z,9.15
2019-05-05T00:19:57.717Z,10.60
2019-05-05T00:22:26.185Z,10.05
2019-05-05T00:24:54.730Z,10.32
2019-05-05T00:27:25.261Z,11.03
2019-05-05T00:29:54.690Z,11.70
2019-05-05T00:32:24.492Z,9.83
2019-05-05T00:34:55.177Z,8.55
2019-05-05T00:37:25.489Z,9.28
2019-05-05T00:39:54.316Z,9.95
2019-05-05T00:42:24.728Z,9.83
2019-05-05T00:44:54.921Z,9.83
2019-05-05T00:47:25.324Z,8.23
2019-05-05T00:49:56.273Z,7.95
2019-05-05T00:52:24.656Z,8.08
2019-05-05T00:54:53.156Z,9.15
2019-05-05T00:57:21.676Z,8.50
2019-05-05T00:59:50.139Z,9.18
2019-05-05T01:02:20.294Z,9.65
2019-05-05T01:04:50.379Z,8.78
2019-05-05T01:07:18.952Z,9.50
2019-05-05T01:09:47.559Z,8.93
2019-05-05T01:12:16.673Z,10.18
2019-05-05T01:14:45.141Z,10.08
2019-05-05T01:17:14.717Z,10.05
2019-05-05T01:19:45.407Z,11.33
2019-05-05T01:22:14.419Z,8.70
2019-05-05T01:27:10.958Z,8.45
2019-05-05T01:29:39.430Z,8.50
2019-05-05T01:32:09.503Z,8.23
2019-05-05T01:34:46.080Z,8.53
2019-05-05T01:37:16.224Z,7.75
2019-05-05T01:39:46.310Z,7.30
2019-05-05T01:42:16.312Z,6.97
2019-05-05T01:44:44.940Z,7.00
2019-05-05T01:47:14.744Z,6.97
2019-05-05T01:49:45.212Z,6.78
2019-05-05T01:52:14.928Z,6.10
2019-05-05T01:54:44.653Z,6.92
2019-05-05T01:57:14.867Z,6.70
2019-05-05T01:59:44.746Z,7.00
2019-05-05T02:02:14.614Z,6.80
2019-05-05T02:04:44.747Z,7.12
2019-05-05T02:07:14.436Z,6.87
2019-05-05T02:09:44.877Z,7.67
2019-05-05T02:12:15.834Z,8.33
2019-05-05T02:14:44.561Z,9.15
2019-05-05T02:17:14.397Z,8.20
2019-05-05T02:19:44.303Z,9.53
2019-05-05T02:22:14.663Z,7.40
2019-05-05T02:24:44.477Z,8.08
2019-05-05T02:27:14.531Z,8.50
2019-05-05T02:30:22.017Z,7.67
2019-05-05T02:32:52.209Z,8.13
2019-05-05T02:35:20.923Z,9.40
2019-05-05T02:37:49.494Z,8.48
2019-05-05T02:40:18.124Z,9.33
2019-05-05T02:42:47.805Z,7.40
2019-05-05T02:48:05.861Z,7.97
2019-05-05T02:51:00.134Z,8.05
2019-05-05T02:53:29.849Z,8.63
2019-05-05T02:56:04.199Z,8.50
2019-05-05T02:58:35.193Z,8.85
2019-05-05T03:01:20.913Z,8.78
2019-05-05T03:03:49.895Z,8.93
2019-05-05T03:06:18.477Z,9.68
2019-05-05T03:08:48.804Z,9.23
2019-05-05T03:11:17.886Z,9.58
2019-05-05T03:13:49.731Z,8.78
2019-05-05T03:16:20.742Z,8.40
2019-05-05T03:18:50.824Z,10.35
2019-05-05T03:21:20.593Z,9.00
2019-05-05T03:23:49.305Z,9.50
2019-05-05T03:26:18.289Z,8.93
2019-05-05T03:28:55.312Z,9.43
2019-05-05T03:31:26.362Z,8.93
2019-05-05T03:33:55.404Z,9.28
2019-05-05T03:36:25.564Z,7.40
2019-05-05T03:38:55.343Z,7.78
2019-05-05T03:41:27.170Z,7.78
2019-05-05T03:44:10.253Z,7.53
2019-05-05T03:46:38.872Z,8.30
2019-05-05T03:49:07.484Z,8.35
2019-05-05T03:51:37.105Z,6.87
2019-05-05T03:56:34.753Z,5.97
2019-05-05T03:59:04.864Z,6.12
2019-05-05T04:01:37.060Z,6.60
2019-05-05T04:04:24.619Z,6.22
2019-05-05T04:06:57.144Z,6.10
2019-05-05T04:09:25.826Z,5.87
2019-05-05T04:11:54.297Z,6.67
2019-05-05T04:14:24.728Z,6.42
2019-05-05T04:17:03.664Z,6.28
2019-05-05T04:19:36.382Z,6.58
2019-05-05T04:22:04.889Z,5.62
2019-05-05T04:24:34.162Z,5.37
2019-05-05T04:27:04.031Z,4.72
2019-05-05T04:29:34.489Z,5.00
2019-05-05T04:32:04.607Z,5.65
2019-05-05T04:34:34.760Z,6.05
2019-05-05T04:37:04.177Z,5.70
2019-05-05T04:39:34.371Z,6.03
2019-05-05T04:42:04.779Z,6.17
2019-05-05T04:44:34.633Z,6.47
2019-05-05T04:47:11.054Z,6.47
2019-05-05T04:49:53.808Z,7.15
2019-05-05T04:52:24.107Z,6.65
2019-05-05T04:54:55.771Z,6.87
2019-05-05T04:57:24.388Z,7.15
2019-05-05T04:59:54.048Z,5.67
2019-05-05T05:02:24.456Z,6.08
2019-05-05T05:04:57.612Z,6.47
2019-05-05T05:07:26.765Z,6.67
2019-05-05T05:09:55.264Z,6.87
2019-05-05T05:12:23.902Z,7.72
2019-05-05T05:14:54.507Z,7.93
2019-05-05T05:17:24.895Z,7.30
2019-05-05T05:19:54.214Z,8.00
2019-05-05T05:22:24.322Z,8.08
2019-05-05T05:24:54.090Z,8.70
2019-05-05T05:29:50.373Z,10.98
2019-05-05T05:32:18.817Z,10.08
2019-05-05T05:34:47.466Z,10.63
2019-05-05T05:37:15.928Z,10.17
2019-05-05T05:39:58.795Z,11.12
2019-05-05T05:42:27.265Z,11.60
2019-05-05T05:45:06.280Z,11.70
2019-05-05T05:47:53.677Z,9.75
2019-05-05T05:50:29.693Z,10.15
2019-05-05T05:52:58.172Z,9.40
2019-05-05T05:55:26.614Z,9.60
2019-05-05T05:57:55.057Z,9.58
2019-05-05T06:00:23.798Z,9.68
2019-05-05T06:02:54.404Z,8.95
2019-05-05T06:05:23.840Z,9.90
2019-05-05T06:07:54.450Z,9.08
2019-05-05T06:10:26.669Z,9.73
2019-05-05T06:12:54.696Z,9.55
2019-05-05T06:15:24.440Z,10.13
2019-05-05T06:17:53.940Z,10.63
2019-05-05T06:20:23.905Z,10.78
2019-05-05T06:22:53.593Z,10.18
2019-05-05T06:27:49.849Z,11.80
2019-05-05T06:30:18.766Z,12.10
2019-05-05T06:32:47.213Z,14.07
2019-05-05T06:35:15.813Z,10.38
2019-05-05T06:37:54.226Z,11.10
2019-05-05T06:40:26.303Z,13.18
2019-05-05T06:42:56.559Z,12.75
2019-05-05T06:45:29.418Z,12.00
2019-05-05T06:47:57.879Z,10.93
2019-05-05T06:50:26.434Z,11.80
2019-05-05T06:52:54.957Z,12.45
2019-05-05T06:55:24.518Z,13.15
2019-05-05T07:00:24.164Z,12.28
2019-05-05T07:02:54.066Z,12.45
2019-05-05T07:05:23.568Z,12.68
2019-05-05T07:07:53.746Z,13.13
2019-05-05T07:10:24.047Z,12.98
2019-05-05T07:12:54.331Z,12.15
2019-05-05T07:15:23.702Z,13.30
2019-05-05T07:17:53.569Z,11.93
2019-05-05T07:20:24.020Z,13.88
2019-05-05T07:23:01.241Z,14.75
2019-05-05T07:25:24.230Z,13.00
2019-05-05T07:27:54.677Z,13.13
2019-05-05T07:30:24.329Z,11.45
2019-05-05T07:32:53.724Z,11.95
2019-05-05T07:35:34.478Z,11.73
2019-05-05T07:38:04.515Z,11.33
2019-05-05T07:40:34.619Z,10.82
2019-05-05T07:43:04.539Z,10.68
2019-05-05T07:45:34.312Z,10.35
2019-05-05T07:48:04.814Z,11.40
2019-05-05T07:50:35.642Z,10.72
2019-05-05T07:53:12.284Z,11.15
2019-05-05T07:55:34.372Z,10.70
2019-05-05T07:58:04.343Z,9.85
2019-05-05T08:00:34.295Z,12.03
2019-05-05T08:03:03.710Z,11.93
2019-05-05T08:05:33.569Z,13.43
2019-05-05T08:08:04.481Z,13.43
2019-05-05T08:10:34.404Z,13.83
2019-05-05T08:13:04.777Z,14.87
2019-05-05T08:15:34.313Z,12.90
2019-05-05T08:20:50.294Z,12.13
2019-05-05T08:23:32.303Z,11.83
2019-05-05T08:26:13.776Z,11.85
2019-05-05T08:29:01.965Z,11.25
2019-05-05T08:31:46.729Z,11.35
2019-05-05T08:34:15.277Z,13.62
2019-05-05T08:36:44.655Z,12.05
2019-05-05T08:41:45.392Z,13.65
2019-05-05T08:44:14.276Z,14.47
2019-05-05T08:46:44.567Z,14.20
2019-05-05T08:51:44.262Z,11.78
2019-05-05T08:54:14.301Z,13.05
2019-05-05T08:56:44.779Z,13.08
2019-05-05T08:59:14.289Z,11.68
2019-05-05T09:01:44.876Z,14.07
2019-05-05T09:04:14.181Z,14.80
2019-05-05T09:09:14.453Z,12.20
2019-05-05T09:11:43.782Z,11.88
2019-05-05T09:14:14.669Z,11.45
2019-05-05T09:16:44.772Z,12.18
2019-05-05T09:19:14.761Z,10.90
2019-05-05T09:21:44.758Z,10.15
2019-05-05T09:24:18.312Z,12.40
2019-05-05T09:26:58.961Z,11.70
2019-05-05T09:29:29.094Z,11.43
2019-05-05T09:31:57.601Z,9.38
2019-05-05T09:34:26.078Z,9.43
2019-05-05T09:36:54.589Z,8.25
2019-05-05T09:39:23.982Z,9.50
2019-05-05T09:41:53.579Z,8.93
2019-05-05T09:44:24.170Z,8.25
2019-05-05T09:46:53.854Z,8.28
2019-05-05T09:49:24.608Z,7.58
2019-05-05T09:51:54.973Z,8.53
2019-05-05T09:54:24.254Z,7.35
2019-05-05T09:56:53.768Z,8.15
2019-05-05T10:01:53.777Z,8.50
2019-05-05T10:04:24.337Z,9.70
2019-05-05T10:06:52.943Z,9.85
2019-05-05T10:09:21.485Z,10.60
2019-05-05T10:11:49.972Z,9.93
2019-05-05T10:14:18.434Z,9.25
2019-05-05T10:16:49.295Z,8.95
2019-05-05T10:19:17.906Z,9.43
2019-05-05T10:21:46.347Z,9.43
2019-05-05T10:24:28.579Z,8.30
2019-05-05T10:26:54.212Z,8.30
2019-05-05T10:29:22.588Z,9.08
2019-05-05T10:31:51.063Z,9.60
2019-05-05T10:34:20.313Z,9.48
2019-05-05T10:36:48.868Z,7.03
2019-05-05T10:39:19.768Z,8.08
2019-05-05T10:41:48.254Z,7.92
2019-05-05T10:44:19.867Z,8.13
2019-05-05T10:46:48.602Z,6.60
2019-05-05T10:49:18.816Z,7.30
2019-05-05T10:51:47.342Z,7.47
2019-05-05T10:54:15.809Z,6.33
2019-05-05T10:56:44.253Z,6.45
2019-05-05T10:59:13.121Z,6.65
2019-05-05T11:01:41.683Z,6.08
2019-05-05T11:04:10.365Z,6.03
2019-05-05T11:06:39.005Z,5.90
2019-05-05T11:09:08.501Z,5.75
2019-05-05T11:11:37.008Z,5.53
2019-05-05T11:14:05.823Z,7.42
2019-05-05T11:16:36.659Z,6.35
2019-05-05T11:19:04.713Z,6.40
2019-05-05T11:21:34.167Z,6.08
2019-05-05T11:26:30.706Z,6.17
2019-05-05T11:28:59.957Z,6.78
2019-05-05T11:31:28.513Z,6.10
2019-05-05T11:33:58.731Z,5.03
2019-05-05T11:36:34.684Z,5.55
2019-05-05T11:39:05.140Z,5.42
2019-05-05T11:41:33.741Z,5.78
2019-05-05T11:44:04.132Z,4.92
2019-05-05T11:46:33.957Z,5.58
2019-05-05T11:49:04.742Z,6.80
2019-05-05T11:51:43.693Z,6.30
2019-05-05T11:54:13.950Z,5.80
2019-05-05T11:56:44.515Z,6.20
2019-05-05T11:59:14.337Z,6.30
2019-05-05T12:01:44.017Z,5.87
2019-05-05T12:04:14.669Z,5.53
2019-05-05T12:06:44.314Z,5.25
2019-05-05T12:11:43.876Z,5.55
2019-05-05T12:14:14.373Z,5.30
2019-05-05T12:16:43.898Z,4.75
2019-05-05T12:19:13.684Z,5.40
2019-05-05T12:21:44.287Z,5.85
2019-05-05T12:24:14.462Z,5.12
2019-05-05T12:26:44.611Z,4.30
2019-05-05T12:29:14.084Z,4.62
2019-05-05T12:31:44.450Z,4.05
2019-05-05T12:34:12.901Z,4.80
2019-05-05T12:36:41.383Z,4.90
2019-05-05T12:39:14.200Z,4.90
2019-05-05T12:41:43.014Z,4.55
2019-05-05T12:44:14.299Z,4.62
2019-05-05T12:46:44.685Z,4.58
2019-05-05T12:49:13.957Z,4.87
2019-05-05T12:51:43.597Z,4.58
2019-05-05T12:56:39.852Z,4.45
2019-05-05T12:59:09.973Z,4.87
2019-05-05T13:01:44.165Z,4.87
2019-05-05T13:04:14.487Z,4.30
2019-05-05T13:06:45.121Z,4.83
2019-05-05T13:09:14.386Z,4.30
2019-05-05T13:14:14.149Z,4.50
2019-05-05T13:16:50.572Z,4.20
2019-05-05T13:19:14.678Z,3.95
2019-05-05T13:22:03.552Z,3.98
2019-05-05T13:24:36.150Z,4.90
2019-05-05T13:27:11.053Z,5.87
2019-05-05T13:29:39.337Z,4.90
2019-05-05T13:32:08.041Z,4.33
2019-05-05T13:34:36.487Z,4.35
2019-05-05T13:37:05.252Z,4.12
2019-05-05T13:39:34.094Z,5.17
2019-05-05T13:42:04.573Z,6.03
2019-05-05T13:44:50.970Z,5.33
2019-05-05T13:47:19.496Z,6.53
2019-05-05T13:49:48.441Z,5.28
2019-05-05T13:52:17.276Z,5.05
2019-05-05T13:54:45.728Z,5.80
2019-05-05T13:57:14.494Z,5.55
2019-05-05T13:59:44.485Z,5.33
2019-05-05T14:02:13.810Z,5.40
2019-05-05T14:04:43.769Z,5.05
2019-05-05T14:07:12.729Z,5.58
2019-05-05T14:09:41.236Z,4.90
2019-05-05T14:12:09.719Z,4.80
2019-05-05T14:14:38.192Z,5.42
2019-05-05T14:17:06.648Z,4.87
2019-05-05T14:19:35.103Z,5.08
2019-05-05T14:22:04.482Z,6.20
2019-05-05T14:27:05.521Z,6.37
2019-05-05T14:29:35.634Z,6.15
2019-05-05T14:32:04.753Z,4.72
2019-05-05T14:34:34.851Z,4.92
2019-05-05T14:37:21.708Z,6.58
2019-05-05T14:39:50.293Z,5.22
2019-05-05T14:42:18.848Z,4.90
2019-05-05T14:44:47.395Z,4.47
2019-05-05T14:47:15.908Z,4.10
2019-05-05T14:49:44.436Z,3.67
2019-05-05T14:52:13.706Z,3.90
2019-05-05T14:54:43.460Z,3.72
2019-05-05T14:57:13.831Z,3.70
2019-05-05T14:59:42.370Z,3.27
2019-05-05T15:02:10.812Z,3.00
2019-05-05T15:04:40.902Z,3.00
2019-05-05T15:07:27.254Z,3.55
2019-05-05T15:10:01.832Z,3.90
2019-05-05T15:12:35.304Z,4.30
2019-05-05T15:15:07.360Z,3.80
2019-05-05T15:17:36.193Z,4.67
2019-05-05T15:20:07.774Z,5.50
2019-05-05T15:22:36.215Z,5.40
2019-05-05T15:25:06.602Z,5.35
2019-05-05T15:27:35.094Z,5.30
2019-05-05T15:30:06.126Z,6.28
2019-05-05T15:32:34.652Z,5.35
2019-05-05T15:35:04.071Z,5.67
2019-05-05T15:37:35.733Z,6.15
2019-05-05T15:40:05.296Z,6.15
2019-05-05T15:42:33.821Z,5.28
2019-05-05T15:45:04.027Z,5.30
2019-05-05T15:47:34.353Z,5.80
2019-05-05T15:50:05.275Z,6.50
2019-05-05T15:52:35.104Z,6.35
2019-05-05T15:55:06.137Z,7.72
2019-05-05T15:57:35.672Z,6.65
2019-05-05T16:00:08.532Z,5.60
2019-05-05T16:02:37.043Z,5.15
2019-05-05T16:05:07.188Z,5.30
2019-05-05T16:07:35.696Z,5.60
2019-05-05T16:10:06.941Z,5.47
2019-05-05T16:12:39.324Z,5.22
2019-05-05T16:15:21.993Z,4.97
2019-05-05T16:17:53.307Z,4.70
2019-05-05T16:20:39.521Z,5.53
2019-05-05T16:23:09.629Z,5.53
2019-05-05T16:25:38.138Z,6.33
2019-05-05T16:28:06.595Z,5.67
2019-05-05T16:30:35.214Z,5.83
2019-05-05T16:33:04.221Z,6.50
2019-05-05T16:35:34.279Z,5.92
2019-05-05T16:38:03.820Z,5.55
2019-05-05T16:40:33.875Z,5.42
2019-05-05T16:43:04.585Z,5.78
2019-05-05T16:45:34.040Z,6.03
2019-05-05T16:48:03.922Z,5.37
2019-05-05T16:50:34.101Z,6.15
2019-05-05T16:53:04.639Z,5.95
2019-05-05T16:55:34.857Z,6.35
2019-05-05T16:58:06.527Z,6.62
2019-05-05T17:00:35.177Z,8.85
2019-05-05T17:03:04.208Z,7.62
2019-05-05T17:05:34.480Z,5.62
2019-05-05T17:08:04.604Z,6.67
2019-05-05T17:10:34.274Z,6.87
2019-05-05T17:15:43.996Z,7.60
2019-05-05T17:18:33.034Z,7.65
2019-05-05T17:21:04.165Z,7.25
2019-05-05T17:23:34.149Z,7.62
2019-05-05T17:26:02.817Z,6.20
2019-05-05T17:28:33.379Z,6.72
2019-05-05T17:31:01.557Z,6.95
2019-05-05T17:33:30.000Z,7.83
2019-05-05T17:35:58.620Z,8.33
2019-05-05T17:38:27.045Z,8.85
2019-05-05T17:40:57.133Z,8.60
2019-05-05T17:43:44.829Z,7.65
2019-05-05T17:46:21.019Z,7.87
2019-05-05T17:49:06.241Z,7.83
2019-05-05T17:51:36.397Z,7.12
2019-05-05T17:54:24.817Z,7.83
2019-05-05T17:56:55.046Z,8.15
2019-05-05T17:59:24.262Z,8.25
2019-05-05T18:01:54.037Z,9.15
2019-05-05T18:04:22.763Z,8.53
2019-05-05T18:06:56.000Z,6.72
2019-05-05T18:09:34.904Z,8.13
2019-05-05T18:12:11.080Z,9.13
2019-05-05T18:14:46.949Z,8.28
2019-05-05T18:17:15.481Z,8.35
2019-05-05T18:22:19.981Z,7.83
2019-05-05T18:24:48.435Z,8.53
2019-05-05T18:27:16.881Z,8.58
2019-05-05T18:29:46.872Z,8.83
2019-05-05T18:32:15.376Z,9.03
2019-05-05T18:34:43.922Z,9.73
2019-05-05T18:37:14.389Z,9.93
2019-05-05T18:39:43.899Z,10.08
2019-05-05T18:42:24.610Z,9.05
2019-05-05T18:44:59.247Z,10.50
2019-05-05T18:47:27.847Z,11.20
2019-05-05T18:49:56.398Z,9.65
2019-05-05T18:52:45.077Z,9.80
2019-05-05T18:57:54.752Z,8.80
2019-05-05T19:00:28.656Z,10.17
2019-05-05T19:03:15.103Z,9.23
2019-05-05T19:05:34.452Z,9.50
2019-05-05T19:08:14.304Z,8.65
2019-05-05T19:10:49.812Z,8.73
2019-05-05T19:13:24.235Z,7.92
2019-05-05T19:15:53.849Z,7.58
2019-05-05T19:18:21.231Z,8.35
2019-05-05T19:20:54.348Z,8.23
2019-05-05T19:23:22.845Z,11.25
2019-05-05T19:25:55.874Z,8.63
2019-05-05T19:28:24.207Z,8.65
2019-05-05T19:30:54.814Z,7.33
2019-05-05T19:33:24.621Z,6.17
2019-05-05T19:35:53.847Z,5.85
2019-05-05T19:38:23.704Z,6.25
2019-05-05T19:40:56.017Z,5.25
2019-05-05T19:43:24.487Z,5.25
2019-05-05T19:45:55.093Z,5.70
2019-05-05T19:48:24.452Z,5.72
2019-05-05T19:50:55.183Z,5.03
2019-05-05T19:53:25.358Z,4.83
2019-05-05T19:55:54.869Z,4.72
2019-05-05T19:58:23.618Z,5.22
2019-05-05T20:00:52.289Z,5.50
2019-05-05T20:03:21.390Z,6.17
2019-05-05T20:05:50.017Z,5.78
2019-05-05T20:08:18.539Z,6.92
2019-05-05T20:10:47.043Z,8.25
2019-05-05T20:13:15.687Z,5.83
2019-05-05T20:16:04.362Z,6.03
2019-05-05T20:18:34.361Z,6.00
2019-05-05T20:21:06.919Z,5.35
2019-05-05T20:23:34.061Z,5.53
2019-05-05T20:28:33.858Z,6.00
2019-05-05T20:31:03.634Z,5.72
2019-05-05T20:33:34.077Z,6.15
2019-05-05T20:36:15.975Z,5.42
2019-05-05T20:38:48.813Z,5.15
2019-05-05T20:41:19.012Z,5.30
2019-05-05T20:43:47.587Z,5.17
2019-05-05T20:46:16.091Z,5.53
2019-05-05T20:48:45.021Z,5.33
2019-05-05T20:51:13.981Z,5.33
2019-05-05T20:53:45.145Z,6.07
2019-05-05T20:56:14.971Z,6.20
2019-05-05T20:58:43.985Z,6.25
2019-05-05T21:03:42.199Z,5.20
2019-05-05T21:06:11.139Z,5.60
2019-05-05T21:08:39.619Z,5.28
2019-05-05T21:11:08.149Z,6.20
2019-05-05T21:13:36.589Z,6.20
2019-05-05T21:16:05.160Z,5.17
2019-05-05T21:18:34.763Z,6.47
2019-05-05T21:21:05.073Z,6.03
2019-05-05T21:23:35.218Z,7.00
2019-05-05T21:26:05.374Z,8.48
2019-05-05T21:28:34.278Z,5.65
2019-05-05T21:31:04.743Z,6.37
2019-05-05T21:33:34.784Z,5.87
2019-05-05T21:36:04.230Z,7.05
2019-05-05T21:41:00.577Z,7.25
2019-05-05T21:43:29.016Z,7.60
2019-05-05T21:45:57.487Z,7.72
2019-05-05T21:48:25.927Z,7.70
2019-05-05T21:50:56.001Z,7.03
2019-05-05T21:53:26.115Z,7.67
2019-05-05T21:55:56.195Z,7.08
2019-05-05T21:58:26.361Z,8.98
2019-05-05T22:00:56.616Z,10.03
2019-05-05T22:03:37.909Z,7.92
2019-05-05T22:06:06.538Z,7.75
2019-05-05T22:08:35.967Z,9.33
2019-05-05T22:11:05.384Z,9.13
2019-05-05T22:13:36.228Z,10.45
2019-05-05T22:16:04.222Z,12.25
2019-05-05T22:18:32.789Z,12.55
2019-05-05T22:21:05.453Z,14.60
2019-05-05T22:23:33.996Z,13.25
2019-05-05T22:26:04.308Z,10.48
2019-05-05T22:28:34.098Z,10.57
2019-05-05T22:31:04.758Z,9.15
2019-05-05T22:33:34.080Z,10.90
2019-05-05T22:36:04.483Z,10.78
2019-05-05T22:38:33.916Z,10.20
2019-05-05T22:43:30.463Z,8.75
2019-05-05T22:45:58.904Z,8.73
2019-05-05T22:48:27.346Z,10.28
2019-05-05T22:50:55.856Z,8.80
2019-05-05T22:53:24.377Z,8.30
2019-05-05T22:55:52.817Z,9.05
2019-05-05T22:58:21.284Z,9.13
2019-05-05T23:00:49.725Z,8.40
2019-05-05T23:03:19.810Z,8.90
2019-05-05T23:06:04.188Z,8.78
2019-05-05T23:08:32.223Z,8.98
2019-05-05T23:11:00.968Z,8.05
2019-05-05T23:13:29.451Z,7.23
2019-05-05T23:15:59.533Z,8.50
2019-05-05T23:18:28.607Z,6.50
2019-05-05T23:21:04.609Z,7.22
2019-05-05T23:23:35.041Z,6.30
2019-05-05T23:26:05.122Z,5.83
2019-05-05T23:28:33.909Z,5.78
2019-05-05T23:31:02.509Z,7.05
2019-05-05T23:33:30.937Z,6.85
2019-05-05T23:35:59.449Z,6.75
2019-05-05T23:38:27.921Z,7.78
2019-05-05T23:40:56.361Z,7.45
2019-05-05T23:43:24.910Z,7.60
2019-05-05T23:45:54.041Z,7.55
2019-05-05T23:48:24.090Z,9.48
2019-05-05T23:50:54.208Z,8.93
2019-05-05T23:53:24.892Z,8.93
2019-05-05T23:55:54.622Z,8.43
2019-05-05T23:58:24.005Z,8.28
